Time;durP1;ratioP1;P1;durP2;ratioP2;P2;SDS_P1;SDS_P2;PMS_P1;PMS_P2;Temp;Humidity;BMP_temperature;BMP_pressure;BME280_temperature;BME280_humidity;BME280_pressure;Samples;Min_cycle;Max_cycle;Signal;HPM_P1;HPM_P2
2023/01/19 00:00:09;;;;;;;21.52;15.68;;;2.20;87.00;;;;;;5015384;28;20083;-76
2023/01/19 00:02:35;;;;;;;26.65;14.80;;;2.20;87.00;;;;;;5027558;28;20037;-77
2023/01/19 00:05:02;;;;;;;23.88;15.15;;;2.20;87.00;;;;;;5033532;28;20021;-79
2023/01/19 00:07:30;;;;;;;22.80;14.60;;;2.10;86.90;;;;;;5021224;28;20084;-75
2023/01/19 00:09:55;;;;;;;23.58;14.02;;;2.10;87.00;;;;;;5030392;28;20025;-79
2023/01/19 00:12:21;;;;;;;28.88;15.23;;;2.10;87.00;;;;;;5027685;28;20159;-78
2023/01/19 00:14:47;;;;;;;24.70;14.82;;;2.10;87.00;;;;;;5025172;28;20117;-75
2023/01/19 00:17:12;;;;;;;23.17;14.65;;;2.10;87.00;;;;;;5032634;28;20136;-77
2023/01/19 00:19:38;;;;;;;22.77;13.20;;;2.10;87.00;;;;;;5026874;28;20036;-76
2023/01/19 00:22:07;;;;;;;23.63;14.27;;;2.10;87.00;;;;;;5030364;28;20117;-77
2023/01/19 00:24:32;;;;;;;21.25;14.30;;;2.10;87.10;;;;;;5015018;28;20038;-78
2023/01/19 00:26:59;;;;;;;21.77;14.82;;;2.10;87.00;;;;;;5031684;28;20044;-75
2023/01/19 00:29:26;;;;;;;23.52;13.80;;;2.10;87.10;;;;;;5027990;28;20049;-78
2023/01/19 00:31:52;;;;;;;21.27;14.48;;;2.10;87.10;;;;;;5021194;28;20029;-77
2023/01/19 00:34:17;;;;;;;24.85;15.18;;;2.10;87.10;;;;;;5024591;28;20033;-75
2023/01/19 00:36:43;;;;;;;22.70;15.13;;;2.10;87.20;;;;;;5018268;28;20057;-79
2023/01/19 00:39:09;;;;;;;25.05;15.75;;;2.10;87.30;;;;;;5027317;28;20032;-79
2023/01/19 00:44:18;;;;;;;25.35;14.35;;;2.00;87.40;;;;;;5023282;28;20157;-75
2023/01/19 00:46:44;;;;;;;22.13;13.93;;;2.00;87.30;;;;;;5023833;28;21082;-79
2023/01/19 00:49:10;;;;;;;23.30;15.13;;;1.90;87.40;;;;;;5015223;28;20026;-75
2023/01/19 00:51:35;;;;;;;20.98;14.80;;;1.90;87.40;;;;;;5029181;28;20036;-78
2023/01/19 00:54:03;;;;;;;25.83;14.68;;;1.90;87.40;;;;;;5020014;28;20224;-78
2023/01/19 00:56:32;;;;;;;22.55;15.57;;;1.80;87.50;;;;;;5022003;28;20469;-75
2023/01/19 00:58:58;;;;;;;20.67;14.55;;;1.80;87.70;;;;;;5030580;28;20029;-79
2023/01/19 01:01:23;;;;;;;26.90;14.48;;;1.70;87.70;;;;;;5032067;28;20048;-79
2023/01/19 01:03:49;;;;;;;21.75;14.45;;;1.70;87.90;;;;;;5022167;28;20033;-75
2023/01/19 01:06:14;;;;;;;23.95;14.30;;;1.70;87.80;;;;;;5026650;28;20069;-77
2023/01/19 01:08:40;;;;;;;25.92;15.93;;;1.70;88.00;;;;;;5028159;28;20042;-78
2023/01/19 01:11:06;;;;;;;25.08;15.40;;;1.70;88.00;;;;;;5028271;28;20064;-78
2023/01/19 01:13:31;;;;;;;23.67;14.63;;;1.70;88.10;;;;;;5021725;28;20017;-74
2023/01/19 01:15:57;;;;;;;19.95;13.77;;;1.60;88.30;;;;;;5021084;28;20046;-75
2023/01/19 01:18:24;;;;;;;25.30;14.82;;;1.70;88.40;;;;;;5025305;28;20103;-78
2023/01/19 01:20:50;;;;;;;20.88;14.57;;;1.60;88.30;;;;;;5033133;28;20052;-77
2023/01/19 01:23:21;;;;;;;24.58;15.07;;;1.60;88.40;;;;;;5025740;28;20033;-75
2023/01/19 01:25:47;;;;;;;24.10;15.18;;;1.70;88.60;;;;;;5021629;28;20118;-78
2023/01/19 01:28:12;;;;;;;24.60;14.85;;;1.70;88.70;;;;;;5023994;28;20463;-78
2023/01/19 01:30:39;;;;;;;24.42;14.98;;;1.70;88.70;;;;;;5010425;28;20072;-75
2023/01/19 01:33:06;;;;;;;22.38;14.15;;;1.70;88.80;;;;;;5023669;28;20690;-78
2023/01/19 01:35:32;;;;;;;21.08;13.07;;;1.80;88.90;;;;;;5020598;28;21579;-77
2023/01/19 01:37:59;;;;;;;26.65;14.57;;;1.90;89.10;;;;;;5032848;28;20652;-78
2023/01/19 01:40:25;;;;;;;32.03;15.07;;;2.00;89.00;;;;;;5026720;28;20037;-78
2023/01/19 01:42:50;;;;;;;28.38;13.85;;;2.10;89.10;;;;;;5015562;28;20036;-76
2023/01/19 01:45:37;;;;;;;28.80;14.18;;;2.10;89.00;;;;;;5014342;28;20541;-76
2023/01/19 01:48:11;;;;;;;23.80;13.57;;;2.20;88.80;;;;;;5020796;28;20056;-75
2023/01/19 01:53:38;;;;;;;24.23;15.15;;;2.40;88.60;;;;;;5022040;28;20245;-76
2023/01/19 01:56:08;;;;;;;23.55;13.77;;;2.40;88.50;;;;;;5016729;28;20129;-78
2023/01/19 01:58:36;;;;;;;22.25;13.90;;;2.40;88.50;;;;;;5026249;28;20074;-75
2023/01/19 02:03:46;;;;;;;22.73;13.38;;;2.40;88.30;;;;;;5027393;28;20186;-79
2023/01/19 02:06:13;;;;;;;26.65;14.48;;;2.30;88.40;;;;;;5026749;28;20561;-78
2023/01/19 02:14:20;;;;;;;24.85;12.98;;;2.20;88.90;;;;;;5014203;28;21139;-75
2023/01/19 02:16:46;;;;;;;22.58;13.18;;;2.10;89.00;;;;;;5023306;28;20053;-78
2023/01/19 02:19:23;;;;;;;26.40;13.65;;;2.20;89.30;;;;;;5027704;28;20029;-78
2023/01/19 02:22:17;;;;;;;24.17;13.75;;;2.20;89.30;;;;;;5024048;28;20469;-77
2023/01/19 02:24:43;;;;;;;22.08;13.40;;;2.20;89.40;;;;;;5011869;28;20493;-77
2023/01/19 02:27:10;;;;;;;26.15;13.43;;;2.20;89.60;;;;;;5012722;28;20038;-77
2023/01/19 02:29:36;;;;;;;24.65;12.77;;;2.30;89.40;;;;;;5019590;28;20029;-75
2023/01/19 02:32:02;;;;;;;22.58;13.48;;;2.20;89.30;;;;;;5025450;28;20038;-74
2023/01/19 02:34:29;;;;;;;27.23;13.40;;;2.20;89.10;;;;;;5029936;28;20021;-78
2023/01/19 02:36:58;;;;;;;22.70;12.98;;;2.20;88.90;;;;;;5024228;28;20061;-78
2023/01/19 02:39:51;;;;;;;25.58;13.32;;;2.10;89.00;;;;;;5019571;28;20028;-75
2023/01/19 02:42:35;;;;;;;24.98;13.48;;;2.10;89.20;;;;;;5024376;28;20048;-74
2023/01/19 02:45:05;;;;;;;25.02;14.48;;;2.10;89.50;;;;;;5017860;28;20063;-78
2023/01/19 02:47:46;;;;;;;24.80;14.07;;;2.10;89.50;;;;;;5021535;28;20112;-76
2023/01/19 02:50:30;;;;;;;25.58;13.98;;;2.00;89.60;;;;;;5015842;28;20112;-75
2023/01/19 02:53:16;;;;;;;28.48;15.63;;;2.00;89.90;;;;;;5022027;28;20037;-77
2023/01/19 02:55:48;;;;;;;33.92;22.77;;;2.10;90.00;;;;;;5015763;28;20077;-79
2023/01/19 02:58:18;;;;;;;40.85;29.00;;;2.10;90.00;;;;;;5009490;28;20056;-78
2023/01/19 03:01:03;;;;;;;41.70;29.75;;;2.10;89.90;;;;;;5021978;28;20127;-76
2023/01/19 03:03:33;;;;;;;;;;;2.10;89.90;;;;;;5019610;28;20021;-79
2023/01/19 03:06:19;;;;;;;32.90;20.83;;;2.10;89.90;;;;;;5025141;28;20601;-76
2023/01/19 03:09:08;;;;;;;30.42;17.60;;;2.10;90.00;;;;;;5014585;28;21506;-77
2023/01/19 03:11:39;;;;;;;25.95;14.07;;;2.00;90.00;;;;;;5029596;28;20152;-75
2023/01/19 03:14:19;;;;;;;21.40;12.38;;;1.90;90.00;;;;;;5020471;28;20022;-77
2023/01/19 03:16:52;;;;;;;21.95;13.05;;;1.90;90.10;;;;;;5018944;28;20048;-78
2023/01/19 03:19:30;;;;;;;23.98;13.00;;;2.00;90.20;;;;;;5021357;28;20037;-77
2023/01/19 03:22:06;;;;;;;21.02;12.63;;;1.90;90.20;;;;;;5021930;28;20037;-77
2023/01/19 03:24:36;;;;;;;23.75;12.30;;;1.90;90.20;;;;;;5031890;28;20473;-77
2023/01/19 03:27:08;;;;;;;19.95;11.98;;;1.80;90.20;;;;;;5022014;28;20433;-75
2023/01/19 03:29:37;;;;;;;23.63;12.38;;;1.70;90.10;;;;;;5024058;28;20037;-76
2023/01/19 03:32:09;;;;;;;28.58;12.75;;;1.70;90.20;;;;;;5027261;28;20124;-77
2023/01/19 03:34:35;;;;;;;24.73;12.93;;;1.70;90.30;;;;;;5025158;28;20701;-76
2023/01/19 03:37:03;;;;;;;22.98;13.02;;;1.70;90.30;;;;;;5024451;28;20029;-75
2023/01/19 03:39:30;;;;;;;22.60;13.88;;;1.60;90.30;;;;;;5018165;28;20022;-74
2023/01/19 03:42:06;;;;;;;23.23;13.50;;;1.60;90.30;;;;;;5030235;28;20041;-78
2023/01/19 03:44:36;;;;;;;24.98;13.75;;;1.50;90.40;;;;;;5019717;28;20129;-78
2023/01/19 03:47:03;;;;;;;30.17;14.13;;;1.50;90.30;;;;;;5020300;28;20663;-75
2023/01/19 03:49:34;;;;;;;22.98;14.15;;;1.40;90.30;;;;;;5018680;28;20025;-78
2023/01/19 03:51:59;;;;;;;26.25;13.98;;;1.40;90.40;;;;;;5029802;28;20025;-75
2023/01/19 03:54:26;;;;;;;27.33;15.48;;;1.30;90.40;;;;;;5017968;28;20528;-74
2023/01/19 03:56:51;;;;;;;27.50;14.07;;;1.30;90.40;;;;;;5027653;28;20039;-79
2023/01/19 03:59:18;;;;;;;25.50;14.38;;;1.30;90.50;;;;;;5032136;28;20037;-75
2023/01/19 04:01:44;;;;;;;22.27;14.27;;;1.30;90.50;;;;;;5029639;28;20037;-76
2023/01/19 04:04:12;;;;;;;27.08;14.27;;;1.20;90.50;;;;;;5030232;28;20021;-76
2023/01/19 04:06:38;;;;;;;24.30;13.75;;;1.20;90.70;;;;;;5016256;28;20037;-76
2023/01/19 04:09:04;;;;;;;25.42;13.30;;;1.10;90.60;;;;;;5032895;28;20169;-77
2023/01/19 04:11:30;;;;;;;24.02;13.52;;;1.10;90.70;;;;;;5023083;28;20560;-77
2023/01/19 04:13:56;;;;;;;24.45;14.55;;;1.10;90.80;;;;;;5032872;28;20033;-73
2023/01/19 04:16:22;;;;;;;26.98;13.70;;;1.10;90.80;;;;;;5028989;28;20529;-76
2023/01/19 04:18:48;;;;;;;24.25;14.18;;;1.10;90.80;;;;;;5035052;28;20033;-76
2023/01/19 04:21:15;;;;;;;26.27;15.93;;;1.10;90.90;;;;;;5053140;28;20037;-76
2023/01/19 04:23:41;;;;;;;24.30;15.60;;;1.00;91.00;;;;;;5040791;28;20025;-78
2023/01/19 04:26:07;;;;;;;24.17;15.45;;;1.00;91.00;;;;;;5049826;28;20038;-74
2023/01/19 04:28:35;;;;;;;22.95;13.68;;;1.00;91.00;;;;;;5033407;28;20030;-78
2023/01/19 04:31:02;;;;;;;28.35;15.32;;;0.90;91.00;;;;;;5029164;28;20029;-77
2023/01/19 04:33:28;;;;;;;26.10;14.13;;;1.00;91.10;;;;;;5026969;28;20603;-77
2023/01/19 04:35:54;;;;;;;23.40;14.60;;;1.00;91.20;;;;;;5032957;28;20115;-74
2023/01/19 04:38:21;;;;;;;22.05;14.95;;;0.90;91.20;;;;;;5025124;28;20037;-72
2023/01/19 04:40:48;;;;;;;25.45;14.93;;;1.00;91.20;;;;;;5018241;28;20031;-73
2023/01/19 04:43:14;;;;;;;28.73;14.88;;;0.90;91.20;;;;;;5024080;28;20128;-77
2023/01/19 04:45:39;;;;;;;24.25;14.88;;;0.90;91.30;;;;;;5028099;28;20116;-76
2023/01/19 04:48:05;;;;;;;26.52;15.27;;;0.90;91.30;;;;;;5014916;28;20044;-73
2023/01/19 04:50:31;;;;;;;30.05;15.45;;;0.90;91.40;;;;;;5020218;28;20172;-76
2023/01/19 04:52:57;;;;;;;28.70;15.63;;;0.90;91.50;;;;;;5020547;28;20028;-74
2023/01/19 04:55:23;;;;;;;27.95;16.00;;;1.00;91.60;;;;;;5021184;28;20029;-77
2023/01/19 04:57:49;;;;;;;25.83;14.88;;;1.00;91.70;;;;;;5020884;28;20045;-77
2023/01/19 05:00:15;;;;;;;29.67;14.90;;;1.10;91.80;;;;;;5027918;28;20089;-77
2023/01/19 05:02:42;;;;;;;27.80;14.70;;;1.10;91.80;;;;;;5014175;28;20034;-78
2023/01/19 05:05:09;;;;;;;26.58;15.55;;;1.10;91.80;;;;;;5022811;28;20033;-79
2023/01/19 05:07:34;;;;;;;25.88;16.75;;;1.10;91.80;;;;;;5029758;28;20082;-75
2023/01/19 05:10:00;;;;;;;27.05;15.75;;;1.20;91.90;;;;;;5030195;28;20029;-80
2023/01/19 05:12:26;;;;;;;24.52;15.70;;;1.20;91.90;;;;;;5027261;28;20084;-78
2023/01/19 05:14:52;;;;;;;23.85;14.75;;;1.20;92.00;;;;;;5028538;28;20056;-79
2023/01/19 05:17:17;;;;;;;28.88;16.35;;;1.20;92.10;;;;;;5027312;28;20050;-76
2023/01/19 05:19:43;;;;;;;28.58;15.48;;;1.30;92.10;;;;;;5027267;28;20029;-75
2023/01/19 05:22:09;;;;;;;27.10;15.55;;;1.30;92.00;;;;;;5027930;28;20059;-77
2023/01/19 05:24:35;;;;;;;30.10;16.25;;;1.30;92.00;;;;;;5025762;28;20013;-77
2023/01/19 05:27:00;;;;;;;33.25;15.88;;;1.30;92.00;;;;;;5022561;28;20033;-76
2023/01/19 05:29:26;;;;;;;27.40;16.00;;;1.30;92.00;;;;;;5027595;28;20098;-75
2023/01/19 05:31:52;;;;;;;26.70;16.10;;;1.30;92.00;;;;;;5018598;28;20029;-77
2023/01/19 05:34:17;;;;;;;29.05;15.88;;;1.30;92.00;;;;;;5021407;28;20120;-77
2023/01/19 05:36:43;;;;;;;28.83;15.27;;;1.30;91.90;;;;;;5024705;28;20026;-78
2023/01/19 05:39:09;;;;;;;25.70;15.68;;;1.30;91.90;;;;;;5028570;28;20064;-75
2023/01/19 05:41:35;;;;;;;28.83;16.92;;;1.30;91.90;;;;;;5027109;28;20040;-77
2023/01/19 05:44:01;;;;;;;29.10;15.38;;;1.40;92.00;;;;;;5014794;28;20103;-77
2023/01/19 05:46:26;;;;;;;29.27;15.77;;;1.40;92.00;;;;;;5010450;28;20587;-73
2023/01/19 05:48:52;;;;;;;28.38;15.50;;;1.40;91.90;;;;;;5013803;28;20103;-78
2023/01/19 05:51:18;;;;;;;25.58;14.93;;;1.30;91.80;;;;;;5014236;28;20026;-74
2023/01/19 05:53:44;;;;;;;27.80;16.02;;;1.30;91.70;;;;;;5014798;28;20014;-77
2023/01/19 05:56:09;;;;;;;26.83;15.25;;;1.20;91.80;;;;;;5016478;28;20153;-75
2023/01/19 05:58:38;;;;;;;29.02;15.93;;;1.20;91.80;;;;;;5028283;28;20037;-75
2023/01/19 06:01:09;;;;;;;31.92;17.23;;;1.10;91.80;;;;;;5007655;28;20030;-76
2023/01/19 06:03:36;;;;;;;30.13;16.63;;;1.10;91.90;;;;;;5022219;28;20679;-78
2023/01/19 06:06:02;;;;;;;34.22;17.30;;;1.10;91.90;;;;;;5014900;28;20037;-74
2023/01/19 06:08:28;;;;;;;30.25;17.27;;;1.10;92.00;;;;;;5018223;28;20030;-75
2023/01/19 06:10:54;;;;;;;27.10;16.35;;;1.10;92.00;;;;;;5024215;28;20033;-77
2023/01/19 06:13:20;;;;;;;31.35;17.63;;;1.10;92.00;;;;;;5010933;28;20505;-74
2023/01/19 06:15:46;;;;;;;32.20;18.67;;;1.10;92.10;;;;;;5024667;28;20055;-73
2023/01/19 06:18:13;;;;;;;31.90;17.90;;;1.10;92.00;;;;;;5031588;28;20118;-74
2023/01/19 06:20:39;;;;;;;33.20;17.52;;;1.10;92.10;;;;;;5018284;28;20037;-75
2023/01/19 06:23:05;;;;;;;29.23;17.40;;;1.10;92.00;;;;;;5011268;28;20562;-75
2023/01/19 06:25:31;;;;;;;33.95;18.75;;;1.10;92.00;;;;;;5016985;28;20017;-73
2023/01/19 06:27:56;;;;;;;31.92;17.33;;;1.10;92.00;;;;;;5014798;28;20681;-75
2023/01/19 06:30:22;;;;;;;32.78;18.25;;;1.00;92.10;;;;;;5008245;28;20371;-75
2023/01/19 06:32:48;;;;;;;32.92;18.13;;;1.00;92.10;;;;;;5016866;28;20017;-72
2023/01/19 06:35:14;;;;;;;32.58;17.45;;;1.00;92.10;;;;;;5019738;28;20123;-75
2023/01/19 06:37:41;;;;;;;33.83;18.30;;;1.00;92.20;;;;;;5025640;28;20413;-74
2023/01/19 06:40:07;;;;;;;29.80;16.77;;;1.00;92.20;;;;;;5015816;28;20488;-76
2023/01/19 06:42:33;;;;;;;33.05;17.25;;;1.00;92.20;;;;;;5021043;28;20036;-75
2023/01/19 06:45:00;;;;;;;39.22;18.08;;;1.00;92.20;;;;;;5029992;28;20488;-73
2023/01/19 06:47:26;;;;;;;32.03;19.23;;;0.90;92.20;;;;;;5020287;28;20642;-75
2023/01/19 06:49:51;;;;;;;30.10;17.25;;;1.00;92.20;;;;;;5014179;28;20033;-75
2023/01/19 06:52:18;;;;;;;41.45;19.52;;;1.00;92.20;;;;;;5020508;28;20046;-72
2023/01/19 06:54:45;;;;;;;29.33;18.65;;;1.00;92.20;;;;;;5016841;28;20199;-75
2023/01/19 06:57:11;;;;;;;37.33;17.98;;;1.00;92.30;;;;;;5020124;28;20498;-75
2023/01/19 06:59:40;;;;;;;37.10;18.10;;;0.90;92.30;;;;;;5015999;28;20025;-75
2023/01/19 07:02:06;;;;;;;37.05;17.83;;;0.90;92.30;;;;;;5015643;28;20041;-74
2023/01/19 07:04:33;;;;;;;30.95;16.38;;;0.90;92.30;;;;;;5015752;28;20021;-75
2023/01/19 07:06:58;;;;;;;28.73;16.88;;;0.90;92.30;;;;;;5018363;28;20130;-75
2023/01/19 07:09:24;;;;;;;35.85;17.10;;;0.90;92.30;;;;;;5022762;28;20033;-75
2023/01/19 07:11:50;;;;;;;33.03;17.00;;;0.90;92.30;;;;;;5022197;28;20042;-74
2023/01/19 07:14:16;;;;;;;35.97;18.27;;;0.90;92.30;;;;;;5026199;28;20046;-76
2023/01/19 07:16:41;;;;;;;32.75;17.50;;;0.90;92.30;;;;;;5026160;28;20091;-76
2023/01/19 07:19:09;;;;;;;29.27;16.10;;;0.90;92.30;;;;;;5023936;28;20115;-72
2023/01/19 07:21:35;;;;;;;32.58;16.42;;;0.90;92.30;;;;;;5017362;28;20136;-71
2023/01/19 07:24:01;;;;;;;29.25;17.13;;;0.90;92.30;;;;;;5019764;28;20538;-72
2023/01/19 07:26:27;;;;;;;31.48;17.05;;;0.90;92.30;;;;;;5016380;28;20100;-71
2023/01/19 07:28:52;;;;;;;27.88;16.23;;;0.90;92.30;;;;;;5024157;28;20032;-72
2023/01/19 07:31:19;;;;;;;28.10;16.40;;;0.90;92.30;;;;;;5024024;28;20544;-71
2023/01/19 07:33:45;;;;;;;30.75;16.83;;;0.90;92.30;;;;;;5022093;28;20018;-73
2023/01/19 07:36:11;;;;;;;33.83;17.10;;;0.90;92.40;;;;;;5029690;28;20033;-72
2023/01/19 07:38:37;;;;;;;30.83;16.35;;;0.90;92.40;;;;;;5026916;28;20044;-72
2023/01/19 07:41:05;;;;;;;28.08;17.35;;;0.90;92.40;;;;;;5019805;28;20045;-72
2023/01/19 07:43:31;;;;;;;28.55;17.35;;;0.90;92.40;;;;;;5021518;28;20029;-73
2023/01/19 07:45:57;;;;;;;35.92;18.55;;;1.00;92.40;;;;;;5018248;28;20063;-72
2023/01/19 07:48:23;;;;;;;32.25;16.95;;;0.90;92.40;;;;;;5025717;28;20033;-73
2023/01/19 07:50:49;;;;;;;29.33;18.23;;;1.00;92.40;;;;;;5027513;28;20029;-73
2023/01/19 07:53:15;;;;;;;38.88;16.63;;;1.10;92.40;;;;;;5019986;28;20544;-72
2023/01/19 07:55:41;;;;;;;31.80;18.33;;;1.10;92.40;;;;;;5020606;28;20096;-73
2023/01/19 07:58:07;;;;;;;34.70;18.63;;;1.20;92.40;;;;;;5020875;28;20033;-73
2023/01/19 08:00:35;;;;;;;35.70;17.65;;;1.30;92.40;;;;;;5024416;28;20029;-73
2023/01/19 08:03:03;;;;;;;39.97;18.00;;;1.40;92.40;;;;;;5026616;28;21779;-73
2023/01/19 08:05:30;;;;;;;31.98;19.00;;;1.40;92.30;;;;;;5021751;28;20025;-73
2023/01/19 08:07:56;;;;;;;34.97;19.52;;;1.50;92.00;;;;;;5024048;28;20433;-73
2023/01/19 08:10:26;;;;;;;29.85;16.90;;;1.60;92.10;;;;;;5021150;28;20032;-73
2023/01/19 08:12:56;;;;;;;32.58;16.40;;;1.60;92.00;;;;;;5017595;28;20113;-73
2023/01/19 08:15:23;;;;;;;31.90;17.40;;;1.80;92.00;;;;;;5022775;28;20523;-73
2023/01/19 08:18:04;;;;;;;26.98;16.40;;;1.90;92.00;;;;;;5020768;28;20029;-73
2023/01/19 08:20:30;;;;;;;31.50;18.00;;;2.00;91.90;;;;;;5028840;28;20112;-72
2023/01/19 08:23:01;;;;;;;37.75;18.38;;;2.10;91.80;;;;;;5015444;28;20057;-71
2023/01/19 08:25:36;;;;;;;26.83;17.30;;;2.10;91.60;;;;;;5017061;28;20021;-74
2023/01/19 08:28:04;;;;;;;35.38;18.13;;;2.10;91.40;;;;;;5025668;28;20035;-74
2023/01/19 08:30:30;;;;;;;34.42;18.40;;;2.10;91.20;;;;;;5022404;28;20035;-74
2023/01/19 08:33:02;;;;;;;32.35;16.73;;;2.20;91.00;;;;;;5020726;28;20044;-73
2023/01/19 08:35:36;;;;;;;30.85;17.40;;;2.20;90.90;;;;;;5027035;28;20064;-72
2023/01/19 08:38:04;;;;;;;32.42;17.80;;;2.30;90.50;;;;;;5017829;28;20037;-74
2023/01/19 08:40:35;;;;;;;37.60;18.17;;;2.30;90.30;;;;;;5024435;28;20120;-73
2023/01/19 08:43:05;;;;;;;29.00;15.95;;;2.40;90.30;;;;;;5027264;28;20029;-73
2023/01/19 08:45:31;;;;;;;34.20;17.73;;;2.40;90.30;;;;;;5030762;28;20025;-73
2023/01/19 08:47:58;;;;;;;30.60;16.65;;;2.60;90.20;;;;;;5018772;28;20127;-73
2023/01/19 08:50:28;;;;;;;27.33;14.82;;;2.60;89.70;;;;;;5025294;28;20367;-73
2023/01/19 08:52:59;;;;;;;31.23;16.27;;;2.60;89.50;;;;;;5020194;28;20037;-73
2023/01/19 08:55:25;;;;;;;27.73;15.77;;;2.70;89.40;;;;;;5022424;28;20430;-73
2023/01/19 08:57:52;;;;;;;28.63;17.10;;;2.70;89.40;;;;;;5022906;28;20038;-73
2023/01/19 09:00:18;;;;;;;34.50;20.02;;;2.70;89.10;;;;;;5018970;28;20033;-73
2023/01/19 09:02:44;;;;;;;34.63;19.55;;;2.60;88.70;;;;;;5029833;28;20045;-74
2023/01/19 09:05:10;;;;;;;31.77;19.73;;;2.50;88.30;;;;;;5020674;28;20026;-74
2023/01/19 09:07:37;;;;;;;36.80;18.05;;;2.50;88.30;;;;;;5021147;28;20068;-74
2023/01/19 09:10:04;;;;;;;32.22;18.88;;;2.50;88.60;;;;;;5038122;28;20552;-74
2023/01/19 09:12:30;;;;;;;31.75;18.88;;;2.50;88.70;;;;;;5021923;28;20097;-74
2023/01/19 09:14:57;;;;;;;31.13;17.42;;;2.50;89.00;;;;;;5032290;28;20052;-74
2023/01/19 09:17:23;;;;;;;32.95;18.17;;;2.60;89.10;;;;;;5034410;28;20038;-73
2023/01/19 09:19:48;;;;;;;27.67;17.90;;;2.60;89.10;;;;;;5020851;28;20544;-74
2023/01/19 09:22:14;;;;;;;31.58;16.90;;;2.70;89.10;;;;;;5027076;28;20504;-74
2023/01/19 09:24:40;;;;;;;27.95;17.88;;;2.70;89.00;;;;;;5030067;28;20120;-74
2023/01/19 09:27:06;;;;;;;39.92;22.23;;;2.70;88.90;;;;;;5022195;28;20034;-74
2023/01/19 09:29:32;;;;;;;33.88;18.95;;;2.70;88.90;;;;;;5022994;28;20124;-75
2023/01/19 09:31:58;;;;;;;30.65;17.45;;;2.70;89.00;;;;;;5019398;28;20034;-73
2023/01/19 09:34:24;;;;;;;33.97;20.27;;;2.80;89.10;;;;;;5030109;28;20021;-74
2023/01/19 09:36:51;;;;;;;31.73;18.63;;;2.80;88.90;;;;;;5023399;28;20038;-76
2023/01/19 09:39:17;;;;;;;28.13;18.60;;;2.90;88.60;;;;;;5018387;28;20030;-74
2023/01/19 09:41:48;;;;;;;28.08;16.85;;;2.90;88.40;;;;;;5024827;28;20037;-75
2023/01/19 09:44:26;;;;;;;24.00;16.20;;;3.00;88.30;;;;;;5021465;28;20026;-75
2023/01/19 09:46:52;;;;;;;27.27;17.40;;;2.90;88.00;;;;;;5011601;28;20121;-76
2023/01/19 09:49:35;;;;;;;30.33;16.75;;;3.00;87.90;;;;;;5014949;28;20105;-74
2023/01/19 09:52:01;;;;;;;33.03;17.10;;;3.00;87.80;;;;;;5023688;28;20094;-76
2023/01/19 09:54:45;;;;;;;30.38;17.25;;;3.00;87.40;;;;;;5013904;28;20034;-76
2023/01/19 09:57:11;;;;;;;29.25;17.98;;;3.00;87.50;;;;;;5021477;28;20040;-74
2023/01/19 09:59:37;;;;;;;26.23;16.45;;;3.00;87.50;;;;;;5020033;28;20034;-74
2023/01/19 10:02:09;;;;;;;26.02;16.08;;;2.90;87.40;;;;;;5023106;28;20053;-76
2023/01/19 10:05:02;;;;;;;27.75;16.50;;;2.90;87.40;;;;;;5024091;28;20021;-77
2023/01/19 10:07:35;;;;;;;27.60;17.45;;;3.00;87.50;;;;;;5025408;28;21432;-76
2023/01/19 10:10:36;;;;;;;25.88;17.40;;;3.00;87.40;;;;;;5014189;28;20466;-74
2023/01/19 10:13:31;;;;;;;24.67;17.13;;;3.00;87.30;;;;;;5016637;28;20464;-73
2023/01/19 10:16:33;;;;;;;30.85;19.17;;;3.00;87.20;;;;;;5016060;28;20041;-73
2023/01/19 10:19:11;;;;;;;30.67;18.08;;;3.00;87.00;;;;;;5016291;28;20029;-74
2023/01/19 10:21:41;;;;;;;26.35;17.35;;;2.90;87.00;;;;;;5018990;28;20054;-74
2023/01/19 10:24:19;;;;;;;27.92;18.10;;;2.90;87.20;;;;;;5026447;28;20462;-74
2023/01/19 10:26:50;;;;;;;25.70;18.02;;;2.90;87.10;;;;;;5022629;28;20065;-75
2023/01/19 10:29:27;;;;;;;28.02;19.17;;;3.00;87.10;;;;;;5015026;28;20026;-74
2023/01/19 10:32:03;;;;;;;32.13;21.75;;;3.00;87.30;;;;;;5028177;28;20033;-73
2023/01/19 10:34:29;;;;;;;35.38;19.45;;;3.10;87.40;;;;;;5028141;28;20106;-74
2023/01/19 10:37:20;;;;;;;30.63;19.25;;;3.10;87.50;;;;;;5029518;28;20041;-73
2023/01/19 10:39:51;;;;;;;31.77;19.38;;;3.30;87.70;;;;;;5019748;28;20049;-72
2023/01/19 10:42:17;;;;;;;33.03;20.05;;;3.40;87.10;;;;;;5024226;28;20573;-75
2023/01/19 10:44:44;;;;;;;28.88;19.52;;;3.50;86.70;;;;;;5004429;28;20113;-74
2023/01/19 10:47:16;;;;;;;30.13;20.35;;;3.50;86.40;;;;;;5019758;28;20036;-73
2023/01/19 10:49:43;;;;;;;36.65;21.02;;;3.60;86.40;;;;;;5015403;28;20164;-74
2023/01/19 10:52:30;;;;;;;28.20;20.08;;;3.70;86.30;;;;;;5017629;28;20029;-73
2023/01/19 10:54:58;;;;;;;37.58;22.90;;;3.90;86.10;;;;;;5020289;28;20013;-73
2023/01/19 10:57:37;;;;;;;34.95;19.98;;;4.00;86.00;;;;;;5020667;28;20059;-73
2023/01/19 11:00:26;;;;;;;32.85;19.95;;;3.80;85.50;;;;;;5015445;28;20029;-75
2023/01/19 11:02:52;;;;;;;31.92;21.83;;;3.80;85.50;;;;;;5014628;28;20092;-73
2023/01/19 11:05:27;;;;;;;30.92;19.35;;;3.90;86.00;;;;;;5020346;28;20034;-74
2023/01/19 11:07:53;;;;;;;31.33;20.70;;;4.00;85.60;;;;;;5023056;28;20105;-73
2023/01/19 11:10:29;;;;;;;34.55;20.80;;;4.10;85.30;;;;;;5025077;28;20429;-72
2023/01/19 11:13:12;;;;;;;30.30;19.98;;;4.20;85.00;;;;;;5018953;28;20380;-72
2023/01/19 11:15:57;;;;;;;31.83;20.08;;;4.30;84.70;;;;;;5014620;28;20592;-73
2023/01/19 11:18:33;;;;;;;29.50;18.10;;;4.40;84.30;;;;;;5022584;28;20029;-75
2023/01/19 11:21:13;;;;;;;31.08;19.65;;;4.60;84.10;;;;;;5023018;28;20041;-75
2023/01/19 11:23:44;;;;;;;29.30;19.80;;;4.70;83.30;;;;;;5013091;28;20017;-74
2023/01/19 11:26:15;;;;;;;28.10;20.15;;;4.60;82.70;;;;;;5017160;28;20037;-74
2023/01/19 11:28:50;;;;;;;30.67;19.25;;;4.70;82.90;;;;;;5012110;28;20406;-73
2023/01/19 11:31:32;;;;;;;28.63;19.77;;;4.60;82.60;;;;;;5031495;28;20112;-74
2023/01/19 11:34:20;;;;;;;29.95;19.58;;;4.60;82.80;;;;;;5020645;28;20057;-73
2023/01/19 11:36:55;;;;;;;31.58;19.40;;;4.60;82.80;;;;;;5021889;28;20041;-73
2023/01/19 11:39:24;;;;;;;33.28;20.42;;;4.60;83.50;;;;;;5018507;28;20025;-73
2023/01/19 11:41:55;;;;;;;30.10;19.50;;;4.70;83.10;;;;;;5020554;28;20045;-73
2023/01/19 11:44:25;;;;;;;29.25;20.98;;;4.50;82.60;;;;;;5010341;28;20056;-73
2023/01/19 11:46:58;;;;;;;27.92;20.48;;;4.50;83.00;;;;;;5014910;28;20877;-73
2023/01/19 11:49:49;;;;;;;31.70;20.95;;;4.60;83.20;;;;;;5015851;28;20034;-73
2023/01/19 11:52:32;;;;;;;32.20;20.83;;;4.70;83.00;;;;;;5020442;28;20037;-73
2023/01/19 11:55:16;;;;;;;32.50;19.90;;;4.80;82.70;;;;;;5016537;28;20545;-73
2023/01/19 11:57:48;;;;;;;29.95;20.45;;;4.80;82.30;;;;;;5023054;28;20041;-74
2023/01/19 12:00:22;;;;;;;28.67;19.40;;;4.70;82.20;;;;;;5014772;28;20029;-74
2023/01/19 12:02:51;;;;;;;29.95;19.45;;;4.70;82.80;;;;;;5014745;28;20191;-74
2023/01/19 12:05:20;;;;;;;32.28;20.35;;;4.70;82.50;;;;;;5015834;28;20192;-73
2023/01/19 12:07:47;;;;;;;26.73;19.45;;;4.80;82.70;;;;;;5020229;28;20068;-73
2023/01/19 12:10:25;;;;;;;35.97;22.48;;;4.90;82.30;;;;;;5018909;28;20026;-73
2023/01/19 12:12:52;;;;;;;33.30;22.27;;;5.00;82.50;;;;;;5026115;28;20041;-72
2023/01/19 12:15:22;;;;;;;30.85;19.65;;;5.00;82.10;;;;;;5018964;28;20050;-72
2023/01/19 12:17:50;;;;;;;24.55;17.30;;;5.10;82.70;;;;;;5017655;28;20724;-72
2023/01/19 12:20:19;;;;;;;34.45;22.30;;;5.30;81.90;;;;;;5019303;28;20036;-73
2023/01/19 12:22:51;;;;;;;33.65;21.35;;;5.40;81.70;;;;;;5026510;28;20048;-73
2023/01/19 12:25:23;;;;;;;32.70;21.30;;;5.40;80.90;;;;;;5033028;28;20064;-73
2023/01/19 12:27:50;;;;;;;28.08;18.23;;;5.30;81.20;;;;;;5024680;28;20045;-73
2023/01/19 12:30:23;;;;;;;36.65;19.80;;;5.30;81.10;;;;;;5027372;28;20107;-72
2023/01/19 12:32:52;;;;;;;37.83;23.13;;;5.40;81.10;;;;;;5030622;28;20036;-74
2023/01/19 12:35:55;;;;;;;35.67;21.85;;;5.40;81.20;;;;;;5018160;28;20568;-73
2023/01/19 12:38:47;;;;;;;37.83;24.52;;;5.50;80.90;;;;;;5028087;28;20048;-73
2023/01/19 12:41:26;;;;;;;41.67;23.33;;;5.50;80.60;;;;;;5023158;28;20033;-73
2023/01/19 12:44:10;;;;;;;35.72;21.77;;;5.50;80.70;;;;;;5024689;28;20042;-74
2023/01/19 12:46:38;;;;;;;34.05;21.52;;;5.50;80.50;;;;;;5018481;28;20048;-73
2023/01/19 12:49:19;;;;;;;35.78;21.58;;;5.60;80.40;;;;;;5026024;28;20257;-73
2023/01/19 12:51:44;;;;;;;45.42;25.50;;;5.60;80.30;;;;;;5024018;28;20033;-74
2023/01/19 12:54:29;;;;;;;41.17;24.48;;;5.60;80.30;;;;;;5019345;28;20414;-74
2023/01/19 12:57:07;;;;;;;44.43;26.97;;;5.60;80.10;;;;;;5019115;28;20478;-73
2023/01/19 12:59:35;;;;;;;32.70;20.55;;;5.50;80.40;;;;;;5020397;28;20032;-74
2023/01/19 13:02:20;;;;;;;34.35;21.70;;;5.50;80.50;;;;;;5025738;28;20048;-74
2023/01/19 13:05:15;;;;;;;34.42;21.42;;;5.60;80.60;;;;;;5028728;28;20029;-74